Rock Spring, GA (30739)

2:27 AM EDT on August 26, 2016 (GMT -0400)
| | Change Station

Elev -9999 ft 0.00 °N, 0.00 °E | Updated

Clear
Clear
73 °F
Feels Like 73 °F
N
0
Wind Variable Wind from NNE
Gusts mph

Today
High -- | Low -- °F
--% Chance of Precip.
Yesterday
High -- | Low -- °F
Precip. -- in
Pressure 30.11 in
Visibility 10.0 miles
Clouds Clear
Dew Point 71 °F
Humidity 93%
Rainfall --
Snow Depth Not available.
7:09 AM 8:15 PM
Last Quarter, 38% visible
METAR KCHA 260553Z AUTO 00000KT 10SM CLR 26/23 A3013 RMK AO2 SLP194 T02610228 10317 20250 52007
Pressure 30.11 in
Visibility 10.0 miles
Clouds Clear
Dew Point 71 °F
Humidity 93%
Rainfall --
Snow Depth Not available.
7:09 AM 8:15 PM
Last Quarter, 38% visible
METAR KCHA 260553Z AUTO 00000KT 10SM CLR 26/23 A3013 RMK AO2 SLP194 T02610228 10317 20250 52007

10-Day Weather Forecast

Almanac

Astronomy

Aug. 26, 2016 Rise Set
Actual Time
Civil Twilight
Nautical Twilight
Astronomical Twilight
Moon
Length of Visible Light
Length of Day
Tomorrow will be .
, % of the Moon is Illuminated

Today's Extremes

State Highs State Lows

Community

WunderPhotos

Upload Photos

1,935,058 photos uploaded!

WunderBlog® & News

Nearby

Air Quality

  Air Quality AQ Index Pollutant
Not available.

Snow Depth

Station Depth Elevation

Earthquake Activity

City Distance Mag. Time & Date
Minimum magnitude displayed is 2.5.

Coastal Water Temperatures

Place Temperature

Stations

Nearby Weather Stations

Station Location Temp. Windchill Dew Point Humidity Wind Precip. Elev Updated Type
                   

Watches & Warnings

There are currently no watches in effect.